Time;durP1;ratioP1;P1;durP2;ratioP2;P2;SDS_P1;SDS_P2;PMS_P1;PMS_P2;Temp;Humidity;BMP_temperature;BMP_pressure;BME280_temperature;BME280_humidity;BME280_pressure;Samples;Min_cycle;Max_cycle;Signal;HPM_P1;HPM_P2
2022/03/02 00:00:18;;;;;;;35.63;32.25;;;1.10;76.80;;;;;;5095302;28;20758;-70
2022/03/02 00:02:47;;;;;;;36.20;33.20;;;1.10;79.20;;;;;;5095519;28;20221;-70
2022/03/02 00:05:14;;;;;;;34.22;31.42;;;1.20;74.60;;;;;;5095516;28;20198;-70
2022/03/02 00:07:41;;;;;;;34.65;31.60;;;1.20;71.40;;;;;;5095475;28;20671;-70
2022/03/02 00:10:09;;;;;;;36.38;33.33;;;1.20;70.30;;;;;;5094925;28;20209;-70
2022/03/02 00:12:36;;;;;;;36.13;32.90;;;1.20;72.00;;;;;;5095334;28;20304;-70
2022/03/02 00:15:03;;;;;;;35.55;32.55;;;1.20;79.80;;;;;;5095181;28;20220;-71
2022/03/02 00:17:30;;;;;;;34.38;31.58;;;1.20;75.10;;;;;;5095128;28;20202;-70
2022/03/02 00:19:58;;;;;;;36.75;33.45;;;1.30;73.20;;;;;;5093745;28;20197;-70
2022/03/02 00:22:25;;;;;;;34.80;32.08;;;1.30;70.50;;;;;;5094958;28;20214;-70
2022/03/02 00:24:52;;;;;;;35.13;32.42;;;1.30;69.30;;;;;;5095186;28;20204;-71
2022/03/02 00:27:22;;;;;;;35.55;32.42;;;1.30;68.60;;;;;;5095089;28;20193;-71
2022/03/02 00:29:50;;;;;;;37.15;33.45;;;1.10;68.60;;;;;;5094786;28;20654;-71
2022/03/02 00:32:17;;;;;;;36.28;33.42;;;1.10;69.30;;;;;;5094797;28;20579;-70
2022/03/02 00:34:44;;;;;;;38.70;35.50;;;1.20;70.90;;;;;;5094721;28;20225;-71
2022/03/02 00:37:14;;;;;;;35.10;32.38;;;1.20;77.50;;;;;;5094591;28;20198;-71
2022/03/02 00:39:42;;;;;;;34.72;31.95;;;1.20;74.70;;;;;;5094717;28;20250;-70
2022/03/02 00:42:09;;;;;;;33.80;31.10;;;1.30;72.20;;;;;;5094480;28;20299;-71
2022/03/02 00:44:36;;;;;;;34.30;31.58;;;1.30;70.00;;;;;;5094783;28;20218;-71
2022/03/02 00:47:05;;;;;;;36.10;32.72;;;1.30;69.40;;;;;;5094645;28;20552;-71
2022/03/02 00:49:32;;;;;;;34.33;31.80;;;1.40;68.70;;;;;;5094490;28;20202;-70
2022/03/02 00:52:00;;;;;;;35.67;32.78;;;1.60;67.50;;;;;;5094688;28;20244;-70
2022/03/02 00:54:28;;;;;;;35.80;32.90;;;1.60;73.60;;;;;;5094463;28;20220;-70
2022/03/02 00:56:55;;;;;;;34.15;31.52;;;1.50;78.50;;;;;;5094657;28;20198;-70
2022/03/02 00:59:22;;;;;;;47.00;34.70;;;1.50;72.70;;;;;;5094250;28;20233;-70
2022/03/02 01:01:50;;;;;;;34.97;32.00;;;1.50;70.70;;;;;;5094368;28;20309;-70
2022/03/02 01:04:17;;;;;;;34.60;31.63;;;1.50;75.10;;;;;;5094344;28;20202;-70
2022/03/02 01:06:44;;;;;;;34.58;31.50;;;1.50;71.20;;;;;;5094196;28;20287;-70
2022/03/02 01:09:11;;;;;;;35.13;31.92;;;1.50;69.20;;;;;;5094048;28;20574;-70
2022/03/02 01:11:39;;;;;;;34.15;31.45;;;1.50;68.00;;;;;;5094192;28;20579;-71
2022/03/02 01:14:06;;;;;;;36.20;33.28;;;1.60;68.40;;;;;;5093984;28;20224;-70
2022/03/02 01:16:33;;;;;;;35.72;32.38;;;1.60;71.40;;;;;;5093925;28;20201;-70
2022/03/02 01:19:00;;;;;;;36.28;33.17;;;1.60;69.60;;;;;;5093959;28;20198;-71
2022/03/02 01:21:27;;;;;;;36.63;33.42;;;1.60;76.80;;;;;;5093982;28;20695;-70
2022/03/02 01:23:56;;;;;;;35.05;32.25;;;1.60;80.70;;;;;;5093891;28;20663;-70
2022/03/02 01:26:24;;;;;;;35.65;32.60;;;1.50;72.00;;;;;;5093911;28;20297;-70
2022/03/02 01:28:54;;;;;;;35.58;32.67;;;1.50;71.40;;;;;;5093702;28;20213;-70
2022/03/02 01:31:22;;;;;;;34.33;31.50;;;1.60;70.00;;;;;;5093523;28;20269;-70
2022/03/02 01:33:50;;;;;;;34.30;31.55;;;1.60;69.10;;;;;;5093815;28;20226;-70
2022/03/02 01:36:17;;;;;;;35.42;32.63;;;1.60;72.60;;;;;;5093417;28;20195;-70
2022/03/02 01:38:44;;;;;;;34.25;31.45;;;1.60;70.00;;;;;;5093546;28;20198;-70
2022/03/02 01:41:14;;;;;;;34.22;31.63;;;1.70;68.30;;;;;;5093364;28;20582;-70
2022/03/02 01:43:41;;;;;;;34.80;31.90;;;1.70;68.30;;;;;;5093485;28;20197;-70
2022/03/02 01:46:09;;;;;;;34.78;32.10;;;1.60;68.80;;;;;;5093539;28;20192;-70
2022/03/02 01:48:37;;;;;;;35.15;32.25;;;1.50;68.50;;;;;;5093537;28;20679;-71
2022/03/02 01:51:04;;;;;;;36.22;33.25;;;1.50;69.10;;;;;;5093210;28;20654;-70
2022/03/02 01:53:31;;;;;;;33.30;30.60;;;1.50;70.40;;;;;;5093320;28;20649;-70
2022/03/02 01:55:59;;;;;;;36.03;32.85;;;1.40;69.00;;;;;;5093517;28;20220;-70
2022/03/02 01:58:27;;;;;;;34.72;31.77;;;1.30;68.60;;;;;;5093273;28;20671;-70
2022/03/02 02:00:54;;;;;;;34.20;31.50;;;1.30;68.90;;;;;;5093124;28;20208;-70
2022/03/02 02:03:22;;;;;;;35.10;32.13;;;1.30;69.10;;;;;;5093324;28;20201;-70
2022/03/02 02:05:49;;;;;;;33.83;31.25;;;1.30;70.00;;;;;;5093326;28;20212;-70
2022/03/02 02:08:16;;;;;;;36.78;33.83;;;1.30;69.40;;;;;;5094019;28;20251;-70
2022/03/02 02:10:43;;;;;;;36.47;33.30;;;1.30;69.20;;;;;;5093124;28;20282;-70
2022/03/02 02:13:10;;;;;;;33.65;30.90;;;1.20;69.80;;;;;;5093505;28;20193;-70
2022/03/02 02:15:37;;;;;;;34.05;31.45;;;1.20;69.90;;;;;;5093104;28;20250;-70
2022/03/02 02:18:04;;;;;;;34.13;31.42;;;1.00;70.10;;;;;;5093100;28;20287;-70
2022/03/02 02:20:36;;;;;;;34.58;31.33;;;1.00;70.10;;;;;;5092895;28;20209;-70
2022/03/02 02:23:03;;;;;;;35.83;33.10;;;1.10;70.00;;;;;;5093033;28;20211;-70
2022/03/02 02:25:30;;;;;;;35.53;32.60;;;1.10;70.00;;;;;;5093214;28;20282;-70
2022/03/02 02:27:57;;;;;;;35.33;32.72;;;1.00;70.80;;;;;;5093065;28;20205;-70
2022/03/02 02:30:25;;;;;;;35.85;32.88;;;0.90;70.90;;;;;;5092773;28;20296;-71
2022/03/02 02:32:52;;;;;;;36.50;33.58;;;0.80;71.20;;;;;;5092653;28;20702;-71
2022/03/02 02:35:19;;;;;;;35.28;32.28;;;0.80;71.30;;;;;;5092611;28;20222;-70
2022/03/02 02:37:48;;;;;;;36.70;33.80;;;0.70;71.40;;;;;;5092899;28;20201;-70
2022/03/02 02:40:21;;;;;;;36.85;33.78;;;0.60;76.70;;;;;;5092441;28;20659;-70
2022/03/02 02:42:49;;;;;;;34.83;32.22;;;0.60;78.40;;;;;;5091885;28;20308;-71
2022/03/02 02:45:20;;;;;;;36.60;33.78;;;0.50;75.40;;;;;;5092666;28;20231;-70
2022/03/02 02:47:49;;;;;;;34.92;32.33;;;0.50;73.40;;;;;;5092742;28;20288;-70
2022/03/02 02:50:18;;;;;;;36.90;33.95;;;0.50;72.80;;;;;;5092361;28;20206;-70
2022/03/02 02:52:47;;;;;;;34.08;31.27;;;0.50;72.30;;;;;;5092489;28;20223;-70
2022/03/02 02:55:15;;;;;;;36.97;33.63;;;0.50;72.10;;;;;;5092656;28;20217;-70
2022/03/02 02:57:43;;;;;;;35.05;32.28;;;0.50;71.70;;;;;;5092825;28;20205;-70
2022/03/02 03:00:13;;;;;;;36.80;33.63;;;0.50;74.20;;;;;;5092444;28;20289;-70
2022/03/02 03:02:40;;;;;;;36.20;33.08;;;0.50;73.20;;;;;;5092831;28;20224;-70
2022/03/02 03:05:11;;;;;;;36.95;33.75;;;0.40;73.40;;;;;;5092488;28;20197;-70
2022/03/02 03:07:38;;;;;;;34.35;31.50;;;0.50;72.60;;;;;;5092585;28;20201;-70
2022/03/02 03:10:08;;;;;;;35.80;33.00;;;0.40;72.00;;;;;;5092334;28;20208;-70
2022/03/02 03:12:35;;;;;;;35.28;32.50;;;0.40;72.60;;;;;;5092485;28;20217;-70
2022/03/02 03:15:04;;;;;;;35.53;32.47;;;0.40;74.00;;;;;;5092241;28;20313;-70
2022/03/02 03:17:31;;;;;;;36.60;33.40;;;0.50;74.40;;;;;;5092322;28;20566;-70
2022/03/02 03:19:57;;;;;;;35.05;32.25;;;0.40;72.50;;;;;;5092178;28;20302;-70
2022/03/02 03:22:24;;;;;;;35.38;32.55;;;0.30;72.70;;;;;;5092287;28;20224;-70
2022/03/02 03:24:51;;;;;;;36.65;33.72;;;0.40;72.60;;;;;;5092473;28;20623;-70
2022/03/02 03:27:21;;;;;;;38.28;35.10;;;0.50;72.40;;;;;;5092277;28;20275;-71
2022/03/02 03:29:48;;;;;;;37.17;34.17;;;0.50;72.10;;;;;;5091941;28;20228;-70
2022/03/02 03:32:15;;;;;;;37.60;34.50;;;0.30;73.40;;;;;;5092185;28;20218;-70
2022/03/02 03:34:41;;;;;;;37.35;34.33;;;0.20;78.20;;;;;;5092157;28;20225;-70
2022/03/02 03:37:09;;;;;;;37.00;33.85;;;0.10;77.00;;;;;;5091904;28;20202;-70
2022/03/02 03:39:36;;;;;;;37.60;34.55;;;0.10;75.20;;;;;;5092000;28;20193;-70
2022/03/02 03:42:03;;;;;;;34.38;31.67;;;0.10;74.50;;;;;;5091987;28;20227;-71
2022/03/02 03:44:32;;;;;;;34.97;32.25;;;0.00;74.20;;;;;;5092125;28;20193;-70
2022/03/02 03:46:58;;;;;;;35.30;32.40;;;0.10;74.10;;;;;;5092140;28;20287;-70
2022/03/02 03:49:25;;;;;;;38.30;34.30;;;0.00;73.90;;;;;;5091923;28;20204;-70
2022/03/02 03:51:53;;;;;;;36.97;34.25;;;0.00;73.90;;;;;;5091997;28;20583;-71
2022/03/02 03:54:19;;;;;;;37.20;34.10;;;0.00;74.50;;;;;;5094075;28;20687;-70
2022/03/02 03:56:46;;;;;;;36.50;33.58;;;0.00;76.40;;;;;;5095521;28;20205;-71
2022/03/02 03:59:13;;;;;;;35.60;32.75;;;0.00;75.10;;;;;;5095281;28;20671;-70
2022/03/02 04:01:41;;;;;;;35.63;32.80;;;0.00;74.30;;;;;;5095749;28;20228;-70
2022/03/02 04:04:08;;;;;;;37.38;34.28;;;0.00;73.90;;;;;;5095645;28;20202;-70
2022/03/02 04:06:35;;;;;;;34.90;32.00;;;-0.10;74.00;;;;;;5095501;28;20284;-70
2022/03/02 04:09:03;;;;;;;38.20;35.08;;;-0.10;74.20;;;;;;5095512;28;20288;-70
2022/03/02 04:11:30;;;;;;;39.92;36.83;;;0.00;73.80;;;;;;5095109;28;20218;-70
2022/03/02 04:13:57;;;;;;;39.50;36.10;;;0.00;73.60;;;;;;5095253;28;20636;-71
2022/03/02 04:16:24;;;;;;;37.30;34.25;;;0.00;73.50;;;;;;5095198;28;20555;-70
2022/03/02 04:18:52;;;;;;;38.42;35.15;;;-0.10;73.60;;;;;;5095133;28;20200;-70
2022/03/02 04:21:19;;;;;;;38.05;34.95;;;-0.20;74.00;;;;;;5094977;28;20309;-70
2022/03/02 04:23:47;;;;;;;37.75;34.28;;;-0.20;74.50;;;;;;5095063;28;20288;-71
2022/03/02 04:26:14;;;;;;;37.15;34.25;;;-0.30;74.50;;;;;;5094839;28;20193;-71
2022/03/02 04:28:41;;;;;;;37.60;34.60;;;-0.30;74.70;;;;;;5094845;28;20290;-71
2022/03/02 04:31:08;;;;;;;38.58;35.35;;;-0.30;75.00;;;;;;5094696;28;20221;-70
2022/03/02 04:33:35;;;;;;;37.53;34.63;;;-0.40;75.00;;;;;;5094929;28;20197;-70
2022/03/02 04:36:04;;;;;;;36.40;33.30;;;-0.40;75.00;;;;;;5094526;28;20244;-70
2022/03/02 04:38:31;;;;;;;40.67;36.40;;;-0.30;74.90;;;;;;5094645;28;20193;-70
2022/03/02 04:40:58;;;;;;;37.83;34.75;;;-0.40;75.00;;;;;;5094410;28;20259;-70
2022/03/02 04:43:25;;;;;;;39.47;36.40;;;-0.30;74.80;;;;;;5094652;28;20193;-70
2022/03/02 04:45:52;;;;;;;38.90;35.63;;;-0.30;74.60;;;;;;5094715;28;20685;-71
2022/03/02 04:48:19;;;;;;;39.22;36.22;;;-0.40;75.00;;;;;;5094579;28;20198;-70
2022/03/02 04:50:46;;;;;;;38.40;35.17;;;-0.40;75.60;;;;;;5094512;28;20224;-70
2022/03/02 04:53:16;;;;;;;38.95;35.83;;;-0.50;75.90;;;;;;5094515;28;20208;-70
2022/03/02 04:55:44;;;;;;;37.65;34.80;;;-0.50;75.60;;;;;;5094255;28;20713;-70
2022/03/02 04:58:12;;;;;;;39.35;36.10;;;-0.50;75.60;;;;;;5094348;28;20655;-71
2022/03/02 05:00:40;;;;;;;38.95;35.58;;;-0.50;75.80;;;;;;5094075;28;20661;-70
2022/03/02 05:03:07;;;;;;;37.63;34.33;;;-0.50;75.90;;;;;;5094410;28;20223;-70
2022/03/02 05:05:36;;;;;;;39.05;35.95;;;-0.60;76.00;;;;;;5093544;28;20276;-70
2022/03/02 05:08:03;;;;;;;37.55;34.60;;;-0.50;76.00;;;;;;5093996;28;20281;-70
2022/03/02 05:10:31;;;;;;;38.90;35.45;;;-0.50;76.00;;;;;;5093909;28;20561;-70
2022/03/02 05:13:00;;;;;;;37.80;34.75;;;-0.50;75.70;;;;;;5094241;28;20221;-70
2022/03/02 05:15:27;;;;;;;36.50;33.50;;;-0.40;75.10;;;;;;5093925;28;20218;-70
2022/03/02 05:17:54;;;;;;;34.60;32.00;;;-0.40;74.90;;;;;;5093941;28;20571;-70
2022/03/02 05:20:22;;;;;;;34.90;31.98;;;-0.50;75.00;;;;;;5093800;28;20200;-70
2022/03/02 05:22:50;;;;;;;35.70;32.60;;;-0.50;75.60;;;;;;5093870;28;20232;-70
2022/03/02 05:25:17;;;;;;;35.47;33.00;;;-0.50;75.50;;;;;;5093989;28;20196;-70
2022/03/02 05:27:46;;;;;;;38.00;34.78;;;-0.60;75.70;;;;;;5093765;28;20201;-70
2022/03/02 05:30:14;;;;;;;38.38;35.05;;;-0.70;76.10;;;;;;5093700;28;20190;-70
2022/03/02 05:32:41;;;;;;;38.08;35.08;;;-0.70;76.20;;;;;;5093751;28;20213;-70
2022/03/02 05:35:09;;;;;;;37.35;34.30;;;-0.70;76.60;;;;;;5093468;28;20217;-70
2022/03/02 05:37:42;;;;;;;37.13;33.92;;;-0.70;76.60;;;;;;5093862;28;20205;-70
2022/03/02 05:40:10;;;;;;;40.03;36.42;;;-0.60;76.60;;;;;;5093438;28;20241;-70
2022/03/02 05:42:37;;;;;;;38.90;35.55;;;-0.60;76.40;;;;;;5093514;28;20209;-70
2022/03/02 05:45:07;;;;;;;37.50;34.40;;;-0.60;76.40;;;;;;5093582;28;20267;-70
2022/03/02 05:47:34;;;;;;;39.72;36.55;;;-0.60;76.60;;;;;;5093491;28;20202;-70
2022/03/02 05:50:01;;;;;;;40.53;37.22;;;-0.50;76.40;;;;;;5093311;28;20284;-70
2022/03/02 05:52:28;;;;;;;41.30;37.97;;;-0.50;76.10;;;;;;5093389;28;20287;-70
2022/03/02 05:54:55;;;;;;;38.17;35.08;;;-0.40;76.00;;;;;;5093462;28;20312;-70
2022/03/02 05:57:22;;;;;;;38.80;35.30;;;-0.30;76.90;;;;;;5093567;28;20197;-70
2022/03/02 05:59:50;;;;;;;38.97;35.63;;;-0.30;77.40;;;;;;5093013;28;20206;-70
2022/03/02 06:02:18;;;;;;;46.30;37.85;;;-0.20;81.20;;;;;;5093207;28;20300;-70
2022/03/02 06:04:47;;;;;;;41.22;37.28;;;-0.10;81.30;;;;;;5093214;28;20200;-71
2022/03/02 06:07:14;;;;;;;39.58;36.28;;;-0.10;78.20;;;;;;5093200;28;20293;-70
2022/03/02 06:09:41;;;;;;;39.72;36.38;;;0.00;77.60;;;;;;5093046;28;20207;-70
2022/03/02 06:12:10;;;;;;;40.75;36.78;;;0.10;78.20;;;;;;5093071;28;20244;-70
2022/03/02 06:14:37;;;;;;;39.47;36.40;;;0.20;77.90;;;;;;5093094;28;20229;-71
2022/03/02 06:17:05;;;;;;;592.00;92.72;;;0.20;81.30;;;;;;5092345;28;20197;-70
2022/03/02 06:19:34;;;;;;;43.47;36.38;;;0.30;83.50;;;;;;5092754;28;20202;-71
2022/03/02 06:22:03;;;;;;;38.05;34.90;;;0.40;83.70;;;;;;5092815;28;20229;-70
2022/03/02 06:24:31;;;;;;;37.70;34.60;;;0.40;82.80;;;;;;5092924;28;20200;-70
2022/03/02 06:26:58;;;;;;;39.03;35.83;;;0.50;80.30;;;;;;5092810;28;20708;-70
2022/03/02 06:29:25;;;;;;;39.35;36.28;;;0.60;77.20;;;;;;5092551;28;20204;-70
2022/03/02 06:31:52;;;;;;;39.40;36.15;;;0.60;75.60;;;;;;5092863;28;20276;-70
2022/03/02 06:34:19;;;;;;;40.50;36.97;;;0.60;74.20;;;;;;5092793;28;20204;-70
2022/03/02 06:36:50;;;;;;;38.58;35.20;;;0.70;76.20;;;;;;5092414;28;20733;-71
2022/03/02 06:39:19;;;;;;;41.00;37.50;;;0.80;79.60;;;;;;5092584;28;20591;-71
2022/03/02 06:41:55;;;;;;;38.65;35.45;;;0.90;83.00;;;;;;5092313;28;20213;-71
2022/03/02 06:44:27;;;;;;;36.75;33.53;;;1.00;76.90;;;;;;5092552;28;20573;-71
2022/03/02 06:47:03;;;;;;;44.22;40.30;;;1.10;75.40;;;;;;5092559;28;20194;-71
2022/03/02 06:49:37;;;;;;;39.22;36.03;;;1.10;79.50;;;;;;5092561;28;20198;-71
2022/03/02 06:52:06;;;;;;;37.10;33.85;;;1.20;76.70;;;;;;5092667;28;20306;-70
2022/03/02 06:54:34;;;;;;;38.35;34.83;;;1.30;74.90;;;;;;5092543;28;20199;-70
2022/03/02 06:57:03;;;;;;;39.08;35.85;;;1.40;73.90;;;;;;5092516;28;20223;-71
2022/03/02 06:59:36;;;;;;;37.85;34.65;;;1.40;71.70;;;;;;5092299;28;20206;-70
2022/03/02 07:02:05;;;;;;;38.10;34.75;;;1.50;71.40;;;;;;5092542;28;20590;-70
2022/03/02 07:04:39;;;;;;;37.28;34.38;;;1.50;68.90;;;;;;5092416;28;20257;-71
2022/03/02 07:07:07;;;;;;;39.97;36.50;;;1.50;68.60;;;;;;5092584;28;20200;-70
2022/03/02 07:09:34;;;;;;;36.70;33.70;;;1.60;71.00;;;;;;5092365;28;20199;-70
2022/03/02 07:12:03;;;;;;;38.47;35.33;;;1.70;69.50;;;;;;5092745;28;20224;-70
2022/03/02 07:14:31;;;;;;;43.72;39.50;;;1.80;69.10;;;;;;5092572;28;20205;-70
2022/03/02 07:16:59;;;;;;;40.75;37.53;;;1.90;76.40;;;;;;5092270;28;20218;-70
2022/03/02 07:19:27;;;;;;;37.75;34.35;;;2.10;73.30;;;;;;5092187;28;20201;-70
2022/03/02 07:21:55;;;;;;;39.05;36.03;;;2.10;70.80;;;;;;5092409;28;20239;-70
2022/03/02 07:24:25;;;;;;;37.63;34.45;;;2.10;68.80;;;;;;5092357;28;20286;-70
2022/03/02 07:26:54;;;;;;;37.95;34.70;;;2.20;68.40;;;;;;5092236;28;20205;-70
2022/03/02 07:29:22;;;;;;;41.50;37.97;;;2.20;68.20;;;;;;5094354;28;20206;-70
2022/03/02 07:31:51;;;;;;;38.05;34.97;;;2.40;69.60;;;;;;5095957;28;20713;-70
2022/03/02 07:34:18;;;;;;;38.30;35.00;;;2.50;68.90;;;;;;5096114;28;20248;-71
2022/03/02 07:36:46;;;;;;;40.58;36.88;;;2.80;67.70;;;;;;5095526;28;20794;-71
2022/03/02 07:39:14;;;;;;;39.08;35.58;;;2.80;71.70;;;;;;5095729;28;20201;-71
2022/03/02 07:41:42;;;;;;;41.00;37.20;;;2.90;69.60;;;;;;5095766;28;20269;-71
2022/03/02 07:44:09;;;;;;;44.17;39.45;;;2.90;65.20;;;;;;5095810;28;20196;-71
2022/03/02 07:46:36;;;;;;;41.03;37.40;;;3.00;78.40;;;;;;5095750;28;20228;-71
2022/03/02 07:49:05;;;;;;;40.55;36.42;;;3.10;73.10;;;;;;5095671;28;20198;-70
2022/03/02 07:51:36;;;;;;;42.58;38.60;;;3.30;68.10;;;;;;5095659;28;20226;-71
2022/03/02 07:54:05;;;;;;;39.75;36.30;;;3.50;64.70;;;;;;5095738;28;20291;-71
2022/03/02 07:56:34;;;;;;;38.58;35.38;;;3.50;64.20;;;;;;5095408;28;20220;-71
2022/03/02 07:59:05;;;;;;;39.17;35.55;;;3.50;63.30;;;;;;5095445;28;20197;-71
2022/03/02 08:01:35;;;;;;;40.17;36.88;;;3.50;63.30;;;;;;5095529;28;20301;-71
2022/03/02 08:04:05;;;;;;;39.38;35.95;;;3.70;63.20;;;;;;5095506;28;20201;-71
2022/03/02 08:06:35;;;;;;;39.40;35.60;;;3.70;63.00;;;;;;5095437;28;20284;-70
2022/03/02 08:09:04;;;;;;;39.08;35.83;;;3.70;63.40;;;;;;5095207;28;20256;-71
2022/03/02 08:11:32;;;;;;;39.90;36.10;;;3.90;63.50;;;;;;5095164;28;20224;-71
2022/03/02 08:14:00;;;;;;;40.05;36.83;;;4.10;62.80;;;;;;5095328;28;20204;-71
2022/03/02 08:16:29;;;;;;;39.97;36.28;;;4.10;62.20;;;;;;5095203;28;20272;-70
2022/03/02 08:18:57;;;;;;;40.75;37.55;;;4.20;62.20;;;;;;5095091;28;20201;-71
2022/03/02 08:21:27;;;;;;;40.25;37.00;;;4.30;62.30;;;;;;5094861;28;20271;-71
2022/03/02 08:23:57;;;;;;;38.08;34.97;;;4.30;61.40;;;;;;5095112;28;20215;-71
2022/03/02 08:26:24;;;;;;;40.80;37.33;;;4.40;61.10;;;;;;5095095;28;20236;-71
2022/03/02 08:28:55;;;;;;;39.88;36.47;;;4.50;61.10;;;;;;5094901;28;20198;-71
2022/03/02 08:31:25;;;;;;;41.35;37.92;;;4.80;60.90;;;;;;5094854;28;20225;-71
2022/03/02 08:33:54;;;;;;;40.42;37.05;;;5.00;60.40;;;;;;5094915;28;20281;-71
2022/03/02 08:36:22;;;;;;;39.42;36.10;;;5.20;59.50;;;;;;5094523;28;20694;-71
2022/03/02 08:38:50;;;;;;;40.30;36.65;;;5.30;59.40;;;;;;5094681;28;20212;-71
2022/03/02 08:41:19;;;;;;;40.97;37.28;;;5.40;59.10;;;;;;5093452;28;20218;-71
2022/03/02 08:43:46;;;;;;;38.20;34.72;;;5.60;58.50;;;;;;5094821;28;20209;-70
2022/03/02 08:46:14;;;;;;;40.17;36.28;;;5.70;57.50;;;;;;5095002;28;20612;-70
2022/03/02 08:48:42;;;;;;;40.75;36.92;;;5.80;57.80;;;;;;5094595;28;20208;-71
2022/03/02 08:51:10;;;;;;;38.58;35.35;;;6.10;56.80;;;;;;5094602;28;20326;-71
2022/03/02 08:53:38;;;;;;;37.95;34.88;;;6.10;57.90;;;;;;5094613;28;20202;-71
2022/03/02 08:56:06;;;;;;;39.50;35.72;;;6.20;58.60;;;;;;5094386;28;20213;-71
2022/03/02 08:58:33;;;;;;;40.13;36.22;;;6.30;56.30;;;;;;5094357;28;20200;-71
2022/03/02 09:01:01;;;;;;;43.92;39.88;;;6.20;55.90;;;;;;5094029;28;20226;-71
2022/03/02 09:03:32;;;;;;;42.50;38.72;;;6.20;72.70;;;;;;5094436;28;20571;-71
2022/03/02 09:06:01;;;;;;;41.00;37.60;;;6.30;65.50;;;;;;5094325;28;20209;-71
2022/03/02 09:08:29;;;;;;;41.85;38.17;;;6.40;64.60;;;;;;5094189;28;20201;-71
2022/03/02 09:10:57;;;;;;;41.38;37.85;;;6.50;60.90;;;;;;5094050;28;20221;-71
2022/03/02 09:13:25;;;;;;;38.97;35.60;;;6.50;59.50;;;;;;5094158;28;20289;-71
2022/03/02 09:15:52;;;;;;;43.47;39.58;;;6.60;59.50;;;;;;5094272;28;20219;-71
2022/03/02 09:18:18;;;;;;;41.35;37.65;;;6.70;56.60;;;;;;5094015;28;20225;-71
2022/03/02 09:20:50;;;;;;;41.83;38.15;;;6.70;54.90;;;;;;5093693;28;20291;-70
2022/03/02 09:23:17;;;;;;;39.42;36.08;;;6.60;54.70;;;;;;5094033;28;20281;-72
2022/03/02 09:25:47;;;;;;;40.38;36.83;;;6.80;56.00;;;;;;5093971;28;20292;-71
2022/03/02 09:28:14;;;;;;;44.67;40.47;;;7.00;56.40;;;;;;5093882;28;20292;-71
2022/03/02 09:30:42;;;;;;;39.65;36.05;;;7.10;60.70;;;;;;5093490;28;20205;-71
2022/03/02 09:33:15;;;;;;;44.85;41.20;;;7.30;58.00;;;;;;5093740;28;20238;-71
2022/03/02 09:35:44;;;;;;;40.78;37.47;;;7.40;59.80;;;;;;5093546;28;20210;-71
2022/03/02 09:38:12;;;;;;;38.78;35.58;;;7.30;62.20;;;;;;5093700;28;20323;-71
2022/03/02 09:40:43;;;;;;;40.97;37.60;;;7.50;55.50;;;;;;5093128;28;20363;-71
2022/03/02 09:43:16;;;;;;;39.55;36.17;;;7.70;53.60;;;;;;5093539;28;20203;-71
2022/03/02 09:45:43;;;;;;;38.97;35.58;;;8.00;53.00;;;;;;5093563;28;20315;-71
2022/03/02 09:48:24;;;;;;;42.00;38.42;;;8.00;52.50;;;;;;5093449;28;20644;-71
2022/03/02 09:50:57;;;;;;;42.97;39.13;;;8.20;54.30;;;;;;5093110;28;20641;-71
2022/03/02 09:53:28;;;;;;;38.55;35.40;;;8.20;66.20;;;;;;5093333;28;20205;-71
2022/03/02 09:55:56;;;;;;;39.20;35.90;;;8.40;60.40;;;;;;5093567;28;20207;-71
2022/03/02 09:58:27;;;;;;;39.10;35.67;;;8.70;51.70;;;;;;5093304;28;20201;-71
2022/03/02 10:00:56;;;;;;;39.10;35.58;;;8.80;51.10;;;;;;5093052;28;20294;-71
2022/03/02 10:03:26;;;;;;;38.03;35.13;;;8.80;50.70;;;;;;5093232;28;20286;-71
2022/03/02 10:05:54;;;;;;;38.63;35.30;;;8.80;53.00;;;;;;5093288;28;20568;-71
2022/03/02 10:08:23;;;;;;;39.47;35.78;;;9.00;49.20;;;;;;5093053;28;20539;-71
2022/03/02 10:10:51;;;;;;;38.83;35.80;;;8.80;48.70;;;;;;5092950;28;20203;-71
2022/03/02 10:13:19;;;;;;;37.58;34.35;;;8.80;48.60;;;;;;5093178;28;20199;-71
2022/03/02 10:15:51;;;;;;;38.95;35.50;;;9.10;48.20;;;;;;5093084;28;20205;-71
2022/03/02 10:18:20;;;;;;;38.20;34.90;;;9.30;47.50;;;;;;5092989;28;20198;-71
2022/03/02 10:20:49;;;;;;;35.65;33.15;;;9.40;53.90;;;;;;5092777;28;20197;-71
2022/03/02 10:23:35;;;;;;;37.63;34.92;;;9.30;47.60;;;;;;5093289;28;20232;-71
2022/03/02 10:26:05;;;;;;;38.85;35.45;;;9.40;47.50;;;;;;5092994;28;20205;-71
2022/03/02 10:28:44;;;;;;;40.70;37.30;;;9.70;46.40;;;;;;5092871;28;20197;-71
2022/03/02 10:31:27;;;;;;;40.07;36.83;;;9.70;47.00;;;;;;5092654;28;20975;-71
2022/03/02 10:33:57;;;;;;;38.00;35.00;;;9.70;46.70;;;;;;5092932;28;20445;-71
2022/03/02 10:36:27;;;;;;;38.50;35.55;;;9.80;47.10;;;;;;5092418;28;20843;-71
2022/03/02 10:39:06;;;;;;;38.27;35.10;;;9.90;47.40;;;;;;5092648;28;20721;-71
2022/03/02 10:41:37;;;;;;;39.67;35.87;;;10.00;49.40;;;;;;5092472;28;20527;-71
2022/03/02 10:44:07;;;;;;;38.17;35.27;;;10.10;52.20;;;;;;5092645;28;20481;-71
2022/03/02 10:46:41;;;;;;;37.80;34.70;;;10.20;47.40;;;;;;5092735;28;20447;-71
2022/03/02 10:49:12;;;;;;;37.13;34.43;;;10.20;45.30;;;;;;5092811;28;20477;-71
2022/03/02 10:51:42;;;;;;;40.37;37.30;;;10.10;45.10;;;;;;5092583;28;20481;-71
2022/03/02 10:54:10;;;;;;;41.73;38.57;;;10.10;45.30;;;;;;5092593;28;20457;-71
2022/03/02 10:56:39;;;;;;;38.17;35.20;;;10.00;45.70;;;;;;5092506;28;21014;-71
2022/03/02 10:59:08;;;;;;;38.83;35.80;;;9.80;47.70;;;;;;5092190;28;20963;-71
2022/03/02 11:01:38;;;;;;;37.57;34.57;;;9.80;46.40;;;;;;5092534;28;20479;-71
2022/03/02 11:04:06;;;;;;;41.70;38.47;;;9.60;46.10;;;;;;5094311;28;20459;-71
2022/03/02 11:06:35;;;;;;;42.25;38.35;;;9.40;47.90;;;;;;5096610;28;20453;-71
2022/03/02 11:09:02;;;;;;;38.42;35.33;;;9.40;47.70;;;;;;5096491;28;20205;-71
2022/03/02 11:11:33;;;;;;;40.90;37.60;;;9.40;47.90;;;;;;5096381;28;20222;-71
2022/03/02 11:14:00;;;;;;;41.42;37.92;;;9.40;47.50;;;;;;5096502;28;20450;-71
2022/03/02 11:16:27;;;;;;;41.63;38.23;;;9.40;47.70;;;;;;5096259;28;20202;-71
2022/03/02 11:18:55;;;;;;;37.93;34.83;;;9.60;47.40;;;;;;5096258;28;20955;-71
2022/03/02 11:21:29;;;;;;;38.50;35.20;;;9.80;46.80;;;;;;5096122;28;20531;-71
2022/03/02 11:23:58;;;;;;;38.80;35.70;;;9.80;46.90;;;;;;5096326;28;20279;-71
2022/03/02 11:26:28;;;;;;;38.53;35.00;;;9.80;46.90;;;;;;5096284;28;20450;-71
2022/03/02 11:28:57;;;;;;;38.80;35.40;;;9.80;47.00;;;;;;5096112;28;20450;-71
2022/03/02 11:31:29;;;;;;;38.80;35.60;;;9.80;46.90;;;;;;5095889;28;20465;-71
2022/03/02 11:34:11;;;;;;;39.60;36.50;;;9.80;47.80;;;;;;5096088;28;20205;-71
2022/03/02 11:36:40;;;;;;;39.07;35.83;;;9.90;49.60;;;;;;5095854;28;20476;-71
2022/03/02 11:39:09;;;;;;;39.87;36.60;;;10.10;48.90;;;;;;5096019;28;20503;-71
2022/03/02 11:41:38;;;;;;;38.90;35.60;;;10.10;49.70;;;;;;5095880;28;20472;-71
2022/03/02 11:44:24;;;;;;;39.07;35.60;;;10.20;46.40;;;;;;5095769;28;20464;-71
2022/03/02 11:46:52;;;;;;;37.13;34.47;;;9.80;46.40;;;;;;5096045;28;21099;-71
2022/03/02 11:49:20;;;;;;;37.70;34.67;;;9.80;48.20;;;;;;5095718;28;20513;-71
2022/03/02 11:52:05;;;;;;;37.67;34.67;;;9.90;49.10;;;;;;5095820;28;20468;-71
2022/03/02 11:54:42;;;;;;;36.37;33.23;;;10.10;47.00;;;;;;5095782;28;20448;-71
2022/03/02 11:57:09;;;;;;;39.50;36.30;;;10.30;46.60;;;;;;5095636;28;20476;-71
2022/03/02 11:59:38;;;;;;;39.10;35.93;;;10.20;46.50;;;;;;5095272;28;20557;-71
2022/03/02 12:02:13;;;;;;;39.33;36.27;;;10.10;46.30;;;;;;5095466;28;20830;-71
2022/03/02 12:04:41;;;;;;;37.50;34.57;;;10.40;46.70;;;;;;5095531;28;20937;-71
2022/03/02 12:07:09;;;;;;;38.77;35.60;;;10.60;46.10;;;;;;5095302;28;20506;-71
2022/03/02 12:09:37;;;;;;;38.60;35.70;;;10.60;46.10;;;;;;5095297;28;20464;-71
2022/03/02 12:12:15;;;;;;;37.30;34.30;;;10.60;45.30;;;;;;5095210;28;20477;-71
2022/03/02 12:14:44;;;;;;;38.00;34.90;;;10.60;45.90;;;;;;5095279;28;20549;-71
2022/03/02 12:17:16;;;;;;;37.70;34.40;;;10.90;44.90;;;;;;5095444;28;20561;-71
2022/03/02 12:19:48;;;;;;;38.00;34.80;;;10.60;43.90;;;;;;5095091;28;20455;-71
2022/03/02 12:22:17;;;;;;;37.17;34.20;;;10.40;44.20;;;;;;5095189;28;20465;-71
2022/03/02 12:24:47;;;;;;;36.27;33.37;;;10.50;44.50;;;;;;5095190;28;20450;-71
2022/03/02 12:27:15;;;;;;;34.90;32.20;;;10.60;42.40;;;;;;5095424;28;20454;-71
2022/03/02 12:29:45;;;;;;;36.70;33.90;;;10.60;44.00;;;;;;5094938;28;20540;-71
2022/03/02 12:32:15;;;;;;;37.50;34.70;;;10.60;44.00;;;;;;5094928;28;20979;-71
2022/03/02 12:34:44;;;;;;;34.90;32.30;;;10.60;43.20;;;;;;5095116;28;20446;-71
2022/03/02 12:37:13;;;;;;;37.10;34.33;;;10.60;42.00;;;;;;5094520;28;20481;-71
2022/03/02 12:39:41;;;;;;;36.83;33.87;;;10.60;43.50;;;;;;5094620;28;20498;-71